PATK

Talkeetna Airport

Talkeetna, Alaska, USA
PATK 221134Z 2212/2312 01011KT P6SM SCT040 OVC060
Issued Valid From Valid To
Jan-22 @ 11:34 UTC
(6 hours ago)
Jan-22 @ 12:00 UTC
(5 hours ago)
Jan-23 @ 12:00 UTC
(in 19 hours)
Jan-22 @ 12:00 to Jan-23 @ 12:00
PATK 221134Z 2212/2312 01011KT P6SM SCT040 OVC060
Wind Visibility Clouds
10° at 11 knots Greater than 6 miles
  • Scattered at 4,000' AGL
  • Overcast at 6,000' AGL
PATK 221134Z 2212/2312 01011KT P6SM SCT040 OVC060
Issued Jan-22 @ 11:34 UTC
(6 hours ago)
Valid From Jan-22 @ 12:00 UTC
(5 hours ago)
Valid To Jan-23 @ 12:00 UTC
(in 19 hours)
Jan-22 @ 12:00 - Jan-23 @ 12:00
Wind Visibility
10° at 11 knots Greater than 6 miles
Clouds
  • Scattered at 4,000' AGL
  • Overcast at 6,000' AGL